Time,TemperatureF,DewpointF,PressureIn,WindDirection,WindDirectionDegrees,WindSpeedMPH,WindSpeedGustMPH,Humidity,HourlyPrecipIn,Conditions,Clouds,dailyrainin,SoftwareType,DateUTC
2013-04-20 05:50:00,67.8,62.1,30.07,West,274,2.0,6.0,82,0.00,,,0.00,Weather View 32 v70,2013-04-20 15:50:00,
2013-04-20 05:55:00,67.8,62.1,30.07,West,272,2.0,6.0,82,0.00,,,0.00,Weather View 32 v70,2013-04-20 15:55:00,
2013-04-20 06:00:00,67.9,62.2,30.07,West,272,0.0,6.0,82,0.00,,,0.00,Weather View 32 v70,2013-04-20 16:00:00,
2013-04-20 06:05:00,68.0,62.3,30.08,West,279,1.0,6.0,82,0.00,,,0.00,Weather View 32 v70,2013-04-20 16:05:00,
2013-04-20 06:10:00,68.0,61.9,30.08,WNW,282,3.0,5.0,81,0.00,,,0.00,Weather View 32 v70,2013-04-20 16:10:00,
2013-04-20 06:15:00,68.0,61.9,30.08,WNW,285,2.0,5.0,81,0.00,,,0.00,Weather View 32 v70,2013-04-20 16:15:00,
2013-04-20 06:20:00,68.1,62.0,30.08,WNW,293,2.0,5.0,81,0.00,,,0.00,Weather View 32 v70,2013-04-20 16:20:00,
2013-04-20 06:25:00,68.2,62.1,30.08,NNW,334,0.0,5.0,81,0.00,,,0.00,Weather View 32 v70,2013-04-20 16:25:00,
2013-04-20 06:30:00,68.4,62.7,30.08,NNW,334,0.0,5.0,82,0.00,,,0.00,Weather View 32 v70,2013-04-20 16:30:00,
2013-04-20 06:35:00,68.4,62.7,30.08,NNW,334,0.0,5.0,82,0.00,,,0.00,Weather View 32 v70,2013-04-20 16:35:00,
2013-04-20 06:36:00,68.5,62.8,30.08,NNW,334,1.0,5.0,82,0.00,,,0.00,Weather View 32 v70,2013-04-20 16:36:00,
2013-04-20 06:41:00,68.6,62.9,30.08,NNW,334,0.0,5.0,82,0.00,,,0.00,Weather View 32 v70,2013-04-20 16:41:00,
2013-04-20 06:46:00,68.9,63.2,30.08,NNW,334,0.0,5.0,82,0.00,,,0.00,Weather View 32 v70,2013-04-20 16:46:00,
2013-04-20 06:51:00,69.2,63.5,30.09,South,170,3.0,4.0,82,0.00,,,0.00,Weather View 32 v70,2013-04-20 16:51:00,
2013-04-20 06:56:00,69.3,63.2,30.09,South,175,2.0,5.0,81,0.00,,,0.00,Weather View 32 v70,2013-04-20 16:56:00,
2013-04-20 07:01:00,69.5,63.4,30.08,SSE,156,2.0,5.0,81,0.00,,,0.00,Weather View 32 v70,2013-04-20 17:01:00,
2013-04-20 07:06:00,69.9,63.4,30.09,ESE,108,3.0,5.0,80,0.00,,,0.00,Weather View 32 v70,2013-04-20 17:06:00,
2013-04-20 07:11:00,70.2,63.7,30.09,ESE,110,1.0,5.0,80,0.00,,,0.00,Weather View 32 v70,2013-04-20 17:11:00,
2013-04-20 07:16:00,70.4,63.6,30.09,ENE,58,1.0,5.0,79,0.00,,,0.00,Weather View 32 v70,2013-04-20 17:16:00,
2013-04-20 07:21:00,70.5,63.6,30.09,ENE,66,4.0,5.0,79,0.00,,,0.00,Weather View 32 v70,2013-04-20 17:21:00,
2013-04-20 07:26:00,70.3,63.1,30.09,NE,35,1.0,5.0,78,0.00,,,0.00,Weather View 32 v70,2013-04-20 17:26:00,
2013-04-20 07:31:00,70.3,63.5,30.09,NE,45,3.0,5.0,79,0.00,,,0.00,Weather View 32 v70,2013-04-20 17:31:00,
2013-04-20 07:36:00,70.2,63.0,30.09,NE,47,0.0,6.0,78,0.00,,,0.00,Weather View 32 v70,2013-04-20 17:36:00,
2013-04-20 07:41:00,70.2,63.4,30.09,North,4,1.0,6.0,79,0.00,,,0.00,Weather View 32 v70,2013-04-20 17:41:00,
2013-04-20 07:46:00,70.5,63.6,30.09,ENE,75,2.0,6.0,79,0.00,,,0.00,Weather View 32 v70,2013-04-20 17:46:00,
2013-04-20 07:51:00,71.1,63.9,30.09,NE,44,1.0,6.0,78,0.00,,,0.00,Weather View 32 v70,2013-04-20 17:51:00,
2013-04-20 07:56:00,70.9,63.7,30.09,ENE,60,3.0,6.0,78,0.00,,,0.00,Weather View 32 v70,2013-04-20 17:56:00,
2013-04-20 08:01:00,71.0,63.8,30.09,ENE,69,4.0,7.0,78,0.00,,,0.00,Weather View 32 v70,2013-04-20 18:01:00,
2013-04-20 08:06:00,71.9,64.6,30.09,ENE,62,3.0,7.0,78,0.00,,,0.00,Weather View 32 v70,2013-04-20 18:06:00,
2013-04-20 08:11:00,72.0,64.4,30.09,ESE,105,3.0,7.0,77,0.00,,,0.00,Weather View 32 v70,2013-04-20 18:11:00,
2013-04-20 08:16:00,72.6,64.6,30.09,East,85,4.0,7.0,76,0.00,,,0.00,Weather View 32 v70,2013-04-20 18:16:00,
2013-04-20 08:21:00,72.8,64.4,30.09,East,85,3.0,7.0,75,0.00,,,0.00,Weather View 32 v70,2013-04-20 18:21:00,
2013-04-20 08:26:00,73.3,64.9,30.09,SE,143,1.0,7.0,75,0.00,,,0.00,Weather View 32 v70,2013-04-20 18:26:00,
2013-04-20 08:31:00,73.5,64.3,30.10,ENE,65,1.0,7.0,73,0.00,,,0.00,Weather View 32 v70,2013-04-20 18:31:00,
2013-04-20 08:36:00,74.0,64.8,30.09,SE,140,4.0,7.0,73,0.00,,,0.00,Weather View 32 v70,2013-04-20 18:36:00,
2013-04-20 08:41:00,73.4,64.2,30.09,SE,140,4.0,7.0,73,0.00,,,0.00,Weather View 32 v70,2013-04-20 18:41:00,
2013-04-20 08:46:00,73.4,64.6,30.09,ESE,109,0.0,7.0,74,0.00,,,0.00,Weather View 32 v70,2013-04-20 18:46:00,
2013-04-20 08:51:00,73.5,64.7,30.09,ESE,108,5.0,7.0,74,0.00,,,0.00,Weather View 32 v70,2013-04-20 18:51:00,
2013-04-20 08:57:00,73.4,64.2,30.09,East,99,0.0,8.0,73,0.00,,,0.00,Weather View 32 v70,2013-04-20 18:57:00,
2013-04-20 09:02:00,73.3,64.1,30.10,SSW,199,3.0,12.0,73,0.00,,,0.00,Weather View 32 v70,2013-04-20 19:02:00,
2013-04-20 09:05:00,73.0,63.8,30.10,SE,125,4.0,12.0,73,0.00,,,0.00,Weather View 32 v70,2013-04-20 19:05:00,
2013-04-20 09:08:00,73.0,64.2,30.10,SSE,149,0.0,12.0,74,0.00,,,0.00,Weather View 32 v70,2013-04-20 19:08:00,
2013-04-20 09:10:00,73.0,64.2,30.10,ENE,70,3.0,12.0,74,0.00,,,0.00,Weather View 32 v70,2013-04-20 19:10:00,
2013-04-20 09:13:00,73.1,64.3,30.10,SE,134,3.0,12.0,74,0.00,,,0.00,Weather View 32 v70,2013-04-20 19:13:00,
2013-04-20 09:20:00,73.7,64.9,30.10,East,85,6.0,12.0,74,0.00,,,0.00,Weather View 32 v70,2013-04-20 19:20:00,
2013-04-20 09:25:00,74.7,65.0,30.10,SE,133,8.0,12.0,72,0.00,,,0.00,Weather View 32 v70,2013-04-20 19:25:00,
2013-04-20 09:30:00,74.9,64.8,30.10,ESE,104,5.0,12.0,71,0.00,,,0.00,Weather View 32 v70,2013-04-20 19:30:00,
2013-04-20 09:35:00,75.1,65.4,30.10,SSE,155,8.0,12.0,72,0.00,,,0.00,Weather View 32 v70,2013-04-20 19:35:00,
2013-04-20 09:40:00,74.7,65.0,30.10,SE,131,5.0,12.0,72,0.00,,,0.00,Weather View 32 v70,2013-04-20 19:40:00,
2013-04-20 09:47:00,73.7,65.3,30.10,SE,135,10.0,14.0,75,0.00,,,0.00,Weather View 32 v70,2013-04-20 19:47:00,
2013-04-20 09:54:00,74.1,65.6,30.10,SSE,161,9.0,14.0,75,0.00,,,0.00,Weather View 32 v70,2013-04-20 19:54:00,
2013-04-20 09:55:00,74.0,65.9,30.10,SE,137,8.0,14.0,76,0.00,,,0.00,Weather View 32 v70,2013-04-20 19:55:00,
2013-04-20 09:59:00,74.3,66.2,30.10,SE,129,10.0,14.0,76,0.00,,,0.00,Weather View 32 v70,2013-04-20 19:59:00,
2013-04-20 10:04:00,74.3,66.2,30.10,SE,136,12.0,14.0,76,0.00,,,0.00,Weather View 32 v70,2013-04-20 20:04:00,
2013-04-20 10:10:00,74.9,66.8,30.09,ESE,122,5.0,14.0,76,0.00,,,0.00,Weather View 32 v70,2013-04-20 20:10:00,
2013-04-20 10:16:00,75.8,67.7,30.09,East,98,5.0,14.0,76,0.00,,,0.00,Weather View 32 v70,2013-04-20 20:16:00,
2013-04-20 10:21:00,76.5,66.8,30.09,ESE,104,7.0,14.0,72,0.00,,,0.00,Weather View 32 v70,2013-04-20 20:21:00,
2013-04-20 10:27:00,76.7,67.0,30.09,SSE,149,5.0,14.0,72,0.00,,,0.00,Weather View 32 v70,2013-04-20 20:27:00,
2013-04-20 10:32:00,76.4,66.3,30.09,SSE,157,5.0,14.0,71,0.00,,,0.00,Weather View 32 v70,2013-04-20 20:32:00,
2013-04-20 10:38:00,76.7,66.6,30.09,SE,141,7.0,14.0,71,0.00,,,0.00,Weather View 32 v70,2013-04-20 20:38:00,
2013-04-20 10:45:00,77.1,66.5,30.09,ESE,107,5.0,14.0,70,0.00,,,0.00,Weather View 32 v70,2013-04-20 20:45:00,
2013-04-20 10:50:00,78.0,67.0,30.09,East,89,10.0,14.0,69,0.00,,,0.00,Weather View 32 v70,2013-04-20 20:50:00,
2013-04-20 10:55:00,78.0,66.5,30.09,East,85,8.0,12.0,68,0.00,,,0.00,Weather View 32 v70,2013-04-20 20:55:00,
2013-04-20 10:56:00,78.2,67.2,30.09,ESE,122,5.0,12.0,69,0.00,,,0.00,Weather View 32 v70,2013-04-20 20:56:00,
2013-04-20 11:00:00,78.0,66.1,30.09,ESE,108,8.0,13.0,67,0.00,,,0.00,Weather View 32 v70,2013-04-20 21:00:00,
2013-04-20 11:04:00,77.1,64.8,30.09,NNE,27,7.0,13.0,66,0.00,,,0.00,Weather View 32 v70,2013-04-20 21:04:00,
2013-04-20 11:05:00,77.0,65.2,30.09,NE,55,6.0,13.0,67,0.00,,,0.00,Weather View 32 v70,2013-04-20 21:05:00,
2013-04-20 11:10:00,78.0,66.1,30.09,ESE,120,11.0,13.0,67,0.00,,,0.00,Weather View 32 v70,2013-04-20 21:10:00,
2013-04-20 11:18:00,78.4,65.6,30.08,East,85,7.0,14.0,65,0.00,,,0.00,Weather View 32 v70,2013-04-20 21:18:00,
2013-04-20 11:20:00,79.1,66.3,30.08,ESE,111,8.0,14.0,65,0.00,,,0.00,Weather View 32 v70,2013-04-20 21:20:00,
2013-04-20 11:23:00,79.2,65.5,30.08,SSE,157,8.0,14.0,63,0.00,,,0.00,Weather View 32 v70,2013-04-20 21:23:00,
2013-04-20 11:25:00,78.9,65.6,30.08,SSE,150,13.0,14.0,64,0.00,,,0.00,Weather View 32 v70,2013-04-20 21:25:00,
2013-04-20 11:29:00,77.9,65.1,30.08,SSE,157,10.0,17.0,65,0.00,,,0.00,Weather View 32 v70,2013-04-20 21:29:00,
2013-04-20 11:30:00,77.6,64.9,30.08,ESE,118,9.0,17.0,65,0.00,,,0.00,Weather View 32 v70,2013-04-20 21:30:00,
2013-04-20 11:34:00,77.3,65.0,30.08,SE,139,12.0,18.0,66,0.00,,,0.00,Weather View 32 v70,2013-04-20 21:34:00,
2013-04-20 11:35:00,77.2,64.9,30.08,SSE,148,15.0,18.0,66,0.00,,,0.00,Weather View 32 v70,2013-04-20 21:35:00,
2013-04-20 11:40:00,77.3,65.4,30.07,SE,131,10.0,18.0,67,0.00,,,0.00,Weather View 32 v70,2013-04-20 21:40:00,
2013-04-20 11:45:00,77.6,65.7,30.08,SE,136,11.0,18.0,67,0.00,,,0.00,Weather View 32 v70,2013-04-20 21:45:00,
2013-04-20 11:46:00,77.6,65.7,30.08,SE,142,13.0,18.0,67,0.00,,,0.00,Weather View 32 v70,2013-04-20 21:46:00,
2013-04-20 11:51:00,77.5,64.8,30.08,ESE,114,7.0,18.0,65,0.00,,,0.00,Weather View 32 v70,2013-04-20 21:51:00,
2013-04-20 11:55:00,78.4,65.6,30.08,ESE,112,10.0,18.0,65,0.00,,,0.00,Weather View 32 v70,2013-04-20 21:55:00,
2013-04-20 11:57:00,78.7,66.3,30.07,East,99,9.0,18.0,66,0.00,,,0.00,Weather View 32 v70,2013-04-20 21:57:00,
2013-04-20 12:02:00,80.2,67.3,30.07,ENE,75,7.0,18.0,65,0.00,,,0.00,Weather View 32 v70,2013-04-20 22:02:00,
2013-04-20 12:07:00,80.8,65.6,30.07,ESE,102,7.0,18.0,60,0.00,,,0.00,Weather View 32 v70,2013-04-20 22:07:00,
2013-04-20 12:10:00,80.4,65.7,30.07,ENE,60,6.0,18.0,61,0.00,,,0.00,Weather View 32 v70,2013-04-20 22:10:00,
2013-04-20 12:13:00,78.8,64.6,30.07,NE,43,3.0,18.0,62,0.00,,,0.00,Weather View 32 v70,2013-04-20 22:13:00,
2013-04-20 12:15:00,78.7,65.4,30.07,SE,141,8.0,18.0,64,0.00,,,0.00,Weather View 32 v70,2013-04-20 22:15:00,
2013-04-20 12:18:00,78.3,65.1,30.07,ENE,75,6.0,18.0,64,0.00,,,0.00,Weather View 32 v70,2013-04-20 22:18:00,
2013-04-20 12:23:00,78.5,65.3,30.07,NE,37,6.0,18.0,64,0.00,,,0.00,Weather View 32 v70,2013-04-20 22:23:00,
2013-04-20 12:30:00,77.7,65.4,30.07,NE,36,12.0,18.0,66,0.00,,,0.00,Weather View 32 v70,2013-04-20 22:30:00,
2013-04-20 12:35:00,75.9,65.0,30.06,NNE,12,11.0,17.0,69,0.00,,,0.00,Weather View 32 v70,2013-04-20 22:35:00,
2013-04-20 12:40:00,75.4,64.9,30.06,NNE,19,12.0,17.0,70,0.00,,,0.00,Weather View 32 v70,2013-04-20 22:40:00,
2013-04-20 12:46:00,75.7,65.6,30.06,NNE,29,16.0,20.0,71,0.00,,,0.00,Weather View 32 v70,2013-04-20 22:46:00,
2013-04-20 12:51:00,75.3,65.6,30.06,NE,45,10.0,20.0,72,0.00,,,0.00,Weather View 32 v70,2013-04-20 22:51:00,
2013-04-20 12:55:00,75.4,65.3,30.06,NNE,30,11.0,20.0,71,0.00,,,0.00,Weather View 32 v70,2013-04-20 22:55:00,
2013-04-20 12:57:00,75.3,65.2,30.06,NE,40,10.0,20.0,71,0.00,,,0.00,Weather View 32 v70,2013-04-20 22:57:00,
2013-04-20 13:03:00,75.3,65.6,30.06,NNE,13,14.0,22.0,72,0.00,,,0.00,Weather View 32 v70,2013-04-20 23:03:00,
2013-04-20 13:08:00,75.6,65.5,30.05,NNE,31,12.0,22.0,71,0.00,,,0.00,Weather View 32 v70,2013-04-20 23:08:00,
2013-04-20 13:13:00,75.6,65.5,30.05,NE,35,5.0,22.0,71,0.00,,,0.00,Weather View 32 v70,2013-04-20 23:13:00,
2013-04-20 13:18:00,75.6,65.5,30.05,NNE,20,15.0,22.0,71,0.00,,,0.00,Weather View 32 v70,2013-04-20 23:18:00,
2013-04-20 13:26:00,75.6,65.5,30.05,NNW,342,8.0,22.0,71,0.00,,,0.00,Weather View 32 v70,2013-04-20 23:26:00,
2013-04-20 13:33:00,75.8,65.3,30.04,NNE,16,15.0,22.0,70,0.00,,,0.00,Weather View 32 v70,2013-04-20 23:33:00,
2013-04-20 13:41:00,75.5,65.0,30.04,NNE,17,8.0,22.0,70,0.00,,,0.00,Weather View 32 v70,2013-04-20 23:41:00,
2013-04-20 13:46:00,75.7,65.6,30.04,NE,41,11.0,22.0,71,0.00,,,0.00,Weather View 32 v70,2013-04-20 23:46:00,
2013-04-20 13:52:00,75.6,65.9,30.04,NE,40,13.0,22.0,72,0.00,,,0.00,Weather View 32 v70,2013-04-20 23:52:00,
2013-04-20 13:57:00,75.7,65.6,30.04,NNE,17,7.0,22.0,71,0.00,,,0.00,Weather View 32 v70,2013-04-20 23:57:00,
2013-04-20 14:02:00,75.6,65.5,30.04,NNE,20,9.0,21.0,71,0.00,,,0.00,Weather View 32 v70,2013-04-21 00:02:00,
2013-04-20 14:05:00,75.4,65.3,30.04,NE,34,7.0,21.0,71,0.00,,,0.00,Weather View 32 v70,2013-04-21 00:05:00,
2013-04-20 14:11:00,75.8,65.7,30.03,NNE,20,16.0,21.0,71,0.00,,,0.00,Weather View 32 v70,2013-04-21 00:11:00,
2013-04-20 14:15:00,75.3,65.6,30.03,NNE,28,9.0,21.0,72,0.00,,,0.00,Weather View 32 v70,2013-04-21 00:15:00,
2013-04-20 14:17:00,75.3,65.6,30.03,NE,40,8.0,18.0,72,0.00,,,0.00,Weather View 32 v70,2013-04-21 00:17:00,
2013-04-20 14:20:00,75.4,65.7,30.03,NNW,342,10.0,18.0,72,0.00,,,0.00,Weather View 32 v70,2013-04-21 00:20:00,
2013-04-20 14:23:00,75.7,66.0,30.03,NNE,14,16.0,19.0,72,0.00,,,0.00,Weather View 32 v70,2013-04-21 00:23:00,
2013-04-20 14:25:00,75.2,65.9,30.03,NNE,21,12.0,19.0,73,0.00,,,0.00,Weather View 32 v70,2013-04-21 00:25:00,
2013-04-20 14:30:00,75.1,65.4,30.03,NNE,29,12.0,19.0,72,0.00,,,0.00,Weather View 32 v70,2013-04-21 00:30:00,
2013-04-20 14:31:00,75.1,65.4,30.03,North,8,12.0,19.0,72,0.00,,,0.00,Weather View 32 v70,2013-04-21 00:31:00,
2013-04-20 14:36:00,75.2,65.5,30.03,North,3,15.0,19.0,72,0.00,,,0.00,Weather View 32 v70,2013-04-21 00:36:00,
2013-04-20 14:40:00,75.2,65.9,30.03,NNE,15,11.0,20.0,73,0.00,,,0.00,Weather View 32 v70,2013-04-21 00:40:00,
2013-04-20 14:42:00,75.1,65.8,30.03,NE,44,12.0,20.0,73,0.00,,,0.00,Weather View 32 v70,2013-04-21 00:42:00,
2013-04-20 14:47:00,75.1,65.8,30.03,NNE,32,13.0,20.0,73,0.00,,,0.00,Weather View 32 v70,2013-04-21 00:47:00,
2013-04-20 14:52:00,74.9,65.6,30.03,NNE,32,12.0,20.0,73,0.00,,,0.00,Weather View 32 v70,2013-04-21 00:52:00,
2013-04-20 14:59:00,74.9,65.6,30.02,NNE,20,12.0,20.0,73,0.00,,,0.00,Weather View 32 v70,2013-04-21 00:59:00,
2013-04-20 15:04:00,74.7,65.4,30.02,North,3,15.0,20.0,73,0.00,,,0.00,Weather View 32 v70,2013-04-21 01:04:00,
2013-04-20 15:11:00,74.1,65.2,30.02,NNE,33,13.0,20.0,74,0.00,,,0.00,Weather View 32 v70,2013-04-21 01:11:00,
2013-04-20 15:17:00,74.3,65.8,30.02,NNE,15,9.0,20.0,75,0.00,,,0.00,Weather View 32 v70,2013-04-21 01:17:00,
2013-04-20 15:23:00,74.0,65.5,30.02,North,9,11.0,20.0,75,0.00,,,0.00,Weather View 32 v70,2013-04-21 01:23:00,
2013-04-20 15:29:00,73.8,65.0,30.02,NNE,15,9.0,20.0,74,0.00,,,0.00,Weather View 32 v70,2013-04-21 01:29:00,
2013-04-20 15:34:00,73.7,65.3,30.02,North,8,9.0,20.0,75,0.00,,,0.00,Weather View 32 v70,2013-04-21 01:34:00,
2013-04-20 15:40:00,73.9,65.4,30.02,NNE,14,3.0,19.0,75,0.00,,,0.00,Weather View 32 v70,2013-04-21 01:40:00,
2013-04-20 15:45:00,74.2,65.7,30.02,NNE,22,13.0,19.0,75,0.00,,,0.00,Weather View 32 v70,2013-04-21 01:45:00,
2013-04-20 15:51:00,74.0,65.5,30.02,NNE,21,9.0,19.0,75,0.00,,,0.00,Weather View 32 v70,2013-04-21 01:51:00,
2013-04-20 15:56:00,73.6,65.9,30.02,NNE,17,13.0,19.0,77,0.00,,,0.00,Weather View 32 v70,2013-04-21 01:56:00,
2013-04-20 16:00:00,73.3,65.6,30.02,North,10,11.0,19.0,77,0.00,,,0.00,Weather View 32 v70,2013-04-21 02:00:00,
2013-04-20 16:01:00,73.2,65.5,30.02,North,3,10.0,19.0,77,0.00,,,0.00,Weather View 32 v70,2013-04-21 02:01:00,
2013-04-20 16:05:00,73.3,65.6,30.02,NE,41,10.0,19.0,77,0.00,,,0.00,Weather View 32 v70,2013-04-21 02:05:00,
2013-04-20 16:07:00,73.3,65.6,30.02,NNE,12,10.0,19.0,77,0.00,,,0.00,Weather View 32 v70,2013-04-21 02:07:00,
2013-04-20 16:12:00,73.1,65.8,30.03,NNE,18,10.0,19.0,78,0.00,,,0.00,Weather View 32 v70,2013-04-21 02:12:00,
2013-04-20 16:18:00,73.1,65.8,30.03,NNE,33,10.0,19.0,78,0.00,,,0.00,Weather View 32 v70,2013-04-21 02:18:00,
2013-04-20 16:23:00,73.0,66.1,30.03,NE,39,5.0,17.0,79,0.00,,,0.00,Weather View 32 v70,2013-04-21 02:23:00,
2013-04-20 16:28:00,72.9,65.6,30.03,North,352,6.0,16.0,78,0.00,,,0.00,Weather View 32 v70,2013-04-21 02:28:00,
2013-04-20 16:33:00,73.0,66.1,30.03,NE,41,6.0,15.0,79,0.00,,,0.00,Weather View 32 v70,2013-04-21 02:33:00,
2013-04-20 16:38:00,73.0,66.1,30.03,NNE,27,6.0,15.0,79,0.00,,,0.00,Weather View 32 v70,2013-04-21 02:38:00,
2013-04-20 16:43:00,72.9,66.0,30.03,NNE,16,3.0,15.0,79,0.00,,,0.00,Weather View 32 v70,2013-04-21 02:43:00,
2013-04-20 16:48:00,72.9,66.0,30.03,NNE,19,7.0,15.0,79,0.00,,,0.00,Weather View 32 v70,2013-04-21 02:48:00,
2013-04-20 16:53:00,72.7,65.8,30.03,NW,315,3.0,15.0,79,0.00,,,0.00,Weather View 32 v70,2013-04-21 02:53:00,
2013-04-20 16:58:00,72.9,66.0,30.03,NE,55,6.0,15.0,79,0.00,,,0.00,Weather View 32 v70,2013-04-21 02:58:00,
2013-04-20 17:03:00,72.8,65.9,30.03,NE,37,6.0,15.0,79,0.00,,,0.00,Weather View 32 v70,2013-04-21 03:03:00,
2013-04-20 17:08:00,72.4,65.9,30.03,ENE,57,2.0,11.0,80,0.00,,,0.00,Weather View 32 v70,2013-04-21 03:08:00,
2013-04-20 17:13:00,72.4,65.9,30.03,NNE,25,5.0,11.0,80,0.00,,,0.00,Weather View 32 v70,2013-04-21 03:13:00,
2013-04-20 17:18:00,72.4,65.9,30.03,NE,39,6.0,10.0,80,0.00,,,0.00,Weather View 32 v70,2013-04-21 03:18:00,
2013-04-20 17:23:00,72.3,66.1,30.03,NE,46,4.0,10.0,81,0.00,,,0.00,Weather View 32 v70,2013-04-21 03:23:00,
2013-04-20 17:28:00,72.1,65.9,30.03,NE,51,3.0,10.0,81,0.00,,,0.00,Weather View 32 v70,2013-04-21 03:28:00,
2013-04-20 17:33:00,71.9,65.0,30.03,NNE,31,4.0,10.0,79,0.00,,,0.00,Weather View 32 v70,2013-04-21 03:33:00,
2013-04-20 17:38:00,72.0,64.7,30.03,ENE,75,4.0,10.0,78,0.00,,,0.00,Weather View 32 v70,2013-04-21 03:38:00,
2013-04-20 17:43:00,72.2,66.0,30.03,North,1,4.0,10.0,81,0.00,,,0.00,Weather View 32 v70,2013-04-21 03:43:00,
2013-04-20 17:48:00,72.0,65.8,30.03,NNE,13,4.0,10.0,81,0.00,,,0.00,Weather View 32 v70,2013-04-21 03:48:00,
2013-04-20 17:53:00,71.9,65.7,30.03,North,4,4.0,8.0,81,0.00,,,0.00,Weather View 32 v70,2013-04-21 03:53:00,
2013-04-20 17:58:00,71.8,65.6,30.03,North,4,2.0,8.0,81,0.00,,,0.00,Weather View 32 v70,2013-04-21 03:58:00,
2013-04-20 18:01:00,71.8,65.6,30.04,North,4,2.0,8.0,81,0.00,,,0.00,Weather View 32 v70,2013-04-21 04:01:00,
2013-04-20 18:02:00,71.8,65.6,30.04,NNE,14,2.0,8.0,81,0.00,,,0.00,Weather View 32 v70,2013-04-21 04:02:00,
2013-04-20 18:07:00,71.8,65.6,30.04,NNE,14,0.0,7.0,81,0.00,,,0.00,Weather View 32 v70,2013-04-21 04:07:00,
2013-04-20 18:12:00,71.9,65.7,30.04,NNE,14,0.0,7.0,81,0.00,,,0.00,Weather View 32 v70,2013-04-21 04:12:00,
2013-04-20 18:17:00,71.8,65.6,30.04,SE,139,0.0,7.0,81,0.00,,,0.00,Weather View 32 v70,2013-04-21 04:17:00,
2013-04-20 18:22:00,71.8,65.6,30.04,SE,139,1.0,7.0,81,0.00,,,0.00,Weather View 32 v70,2013-04-21 04:22:00,
2013-04-20 18:27:00,71.9,65.7,30.04,SE,139,1.0,7.0,81,0.00,,,0.00,Weather View 32 v70,2013-04-21 04:27:00,
2013-04-20 18:32:00,71.9,65.7,30.05,SE,139,0.0,7.0,81,0.00,,,0.00,Weather View 32 v70,2013-04-21 04:32:00,
2013-04-20 18:37:00,71.8,65.6,30.05,SE,139,0.0,7.0,81,0.00,,,0.00,Weather View 32 v70,2013-04-21 04:37:00,
2013-04-20 18:42:00,71.8,65.6,30.05,SE,139,0.0,7.0,81,0.00,,,0.00,Weather View 32 v70,2013-04-21 04:42:00,
2013-04-20 18:47:00,71.7,65.5,30.05,SE,139,0.0,6.0,81,0.00,,,0.00,Weather View 32 v70,2013-04-21 04:47:00,
2013-04-20 18:52:00,71.6,65.8,30.05,SSE,154,0.0,6.0,82,0.00,,,0.00,Weather View 32 v70,2013-04-21 04:52:00,
2013-04-20 18:57:00,71.5,65.7,30.05,SSE,154,0.0,4.0,82,0.00,,,0.00,Weather View 32 v70,2013-04-21 04:57:00,
2013-04-20 19:02:00,71.1,64.9,30.05,NW,325,3.0,3.0,81,0.00,,,0.00,Weather View 32 v70,2013-04-21 05:02:00,
2013-04-20 19:07:00,71.1,64.9,30.05,NW,326,0.0,4.0,81,0.00,,,0.00,Weather View 32 v70,2013-04-21 05:07:00,
2013-04-20 19:12:00,71.2,65.4,30.05,ENE,75,2.0,4.0,82,0.00,,,0.00,Weather View 32 v70,2013-04-21 05:12:00,
2013-04-20 19:17:00,71.2,65.4,30.05,ENE,75,0.0,4.0,82,0.00,,,0.00,Weather View 32 v70,2013-04-21 05:17:00,
2013-04-20 19:22:00,70.9,65.1,30.05,WNW,298,3.0,5.0,82,0.00,,,0.00,Weather View 32 v70,2013-04-21 05:22:00,
2013-04-20 19:27:00,70.7,64.9,30.05,WNW,290,5.0,6.0,82,0.00,,,0.00,Weather View 32 v70,2013-04-21 05:27:00,
2013-04-20 19:32:00,70.5,64.7,30.06,WNW,303,5.0,6.0,82,0.00,,,0.00,Weather View 32 v70,2013-04-21 05:32:00,
2013-04-20 19:37:00,70.4,65.0,30.06,West,281,2.0,6.0,83,0.00,,,0.00,Weather View 32 v70,2013-04-21 05:37:00,
2013-04-20 19:42:00,70.4,65.0,30.06,WNW,297,2.0,6.0,83,0.00,,,0.00,Weather View 32 v70,2013-04-21 05:42:00,
2013-04-20 19:47:00,70.3,64.9,30.06,WNW,296,2.0,6.0,83,0.00,,,0.00,Weather View 32 v70,2013-04-21 05:47:00,
2013-04-20 19:52:00,70.4,65.0,30.06,WNW,301,2.0,6.0,83,0.00,,,0.00,Weather View 32 v70,2013-04-21 05:52:00,
2013-04-20 19:57:00,70.4,65.0,30.06,WNW,283,2.0,6.0,83,0.00,,,0.00,Weather View 32 v70,2013-04-21 05:57:00,
2013-04-20 20:02:00,70.4,64.6,30.06,WNW,282,3.0,6.0,82,0.00,,,0.00,Weather View 32 v70,2013-04-21 06:02:00,
2013-04-20 20:07:00,70.3,64.9,30.06,WNW,283,3.0,6.0,83,0.00,,,0.00,Weather View 32 v70,2013-04-21 06:07:00,
2013-04-20 20:12:00,70.2,64.8,30.07,WNW,289,0.0,6.0,83,0.00,,,0.00,Weather View 32 v70,2013-04-21 06:12:00,
2013-04-20 20:17:00,70.2,64.8,30.07,WNW,282,4.0,6.0,83,0.00,,,0.00,Weather View 32 v70,2013-04-21 06:17:00,
2013-04-20 20:22:00,70.2,64.8,30.07,WNW,282,2.0,6.0,83,0.00,,,0.00,Weather View 32 v70,2013-04-21 06:22:00,
2013-04-20 20:27:00,70.2,64.4,30.07,WNW,299,5.0,5.0,82,0.00,,,0.00,Weather View 32 v70,2013-04-21 06:27:00,
2013-04-20 20:32:00,70.1,64.3,30.07,WNW,284,4.0,6.0,82,0.00,,,0.00,Weather View 32 v70,2013-04-21 06:32:00,
2013-04-20 20:37:00,70.0,64.6,30.07,WNW,287,3.0,6.0,83,0.00,,,0.00,Weather View 32 v70,2013-04-21 06:37:00,
2013-04-20 20:42:00,70.0,64.6,30.07,NW,316,6.0,6.0,83,0.00,,,0.00,Weather View 32 v70,2013-04-21 06:42:00,
2013-04-20 20:47:00,70.0,64.6,30.07,WNW,293,5.0,6.0,83,0.00,,,0.00,Weather View 32 v70,2013-04-21 06:47:00,
2013-04-20 20:52:00,70.3,64.5,30.07,NW,308,4.0,6.0,82,0.00,,,0.00,Weather View 32 v70,2013-04-21 06:52:00,
2013-04-20 20:57:00,70.3,64.5,30.08,NW,318,4.0,6.0,82,0.00,,,0.00,Weather View 32 v70,2013-04-21 06:57:00,
2013-04-20 21:02:00,70.3,64.2,30.08,NW,311,2.0,6.0,81,0.00,,,0.00,Weather View 32 v70,2013-04-21 07:02:00,
2013-04-20 21:07:00,70.4,64.3,30.08,West,270,1.0,6.0,81,0.00,,,0.00,Weather View 32 v70,2013-04-21 07:07:00,
2013-04-20 21:12:00,70.4,64.3,30.08,West,270,0.0,6.0,81,0.00,,,0.00,Weather View 32 v70,2013-04-21 07:12:00,
2013-04-20 21:17:00,70.6,64.5,30.08,West,268,0.0,6.0,81,0.00,,,0.00,Weather View 32 v70,2013-04-21 07:17:00,
2013-04-20 21:22:00,70.7,64.6,30.09,West,268,0.0,6.0,81,0.00,,,0.00,Weather View 32 v70,2013-04-21 07:22:00,
2013-04-20 21:27:00,70.7,64.6,30.09,West,268,0.0,6.0,81,0.00,,,0.00,Weather View 32 v70,2013-04-21 07:27:00,
2013-04-20 21:32:00,70.8,64.3,30.09,West,269,0.0,6.0,80,0.00,,,0.00,Weather View 32 v70,2013-04-21 07:32:00,
2013-04-20 21:37:00,70.7,64.2,30.09,West,268,0.0,6.0,80,0.00,,,0.00,Weather View 32 v70,2013-04-21 07:37:00,
2013-04-20 21:42:00,70.8,64.3,30.09,West,268,0.0,6.0,80,0.00,,,0.00,Weather View 32 v70,2013-04-21 07:42:00,
2013-04-20 21:47:00,70.7,64.2,30.09,NW,320,2.0,6.0,80,0.00,,,0.00,Weather View 32 v70,2013-04-21 07:47:00,
2013-04-20 21:52:00,70.5,64.0,30.09,NW,309,4.0,6.0,80,0.00,,,0.00,Weather View 32 v70,2013-04-21 07:52:00,
2013-04-20 21:57:00,70.4,63.9,30.09,NW,315,4.0,6.0,80,0.00,,,0.00,Weather View 32 v70,2013-04-21 07:57:00,
2013-04-20 22:02:00,70.5,64.0,30.09,NNW,336,1.0,6.0,80,0.00,,,0.00,Weather View 32 v70,2013-04-21 08:02:00,
2013-04-20 22:07:00,70.7,64.6,30.09,NNW,336,2.0,6.0,81,0.00,,,0.00,Weather View 32 v70,2013-04-21 08:07:00,
2013-04-20 22:13:00,70.7,64.2,30.09,NW,305,5.0,6.0,80,0.00,,,0.00,Weather View 32 v70,2013-04-21 08:13:00,
2013-04-20 22:18:00,70.7,63.8,30.09,WNW,298,2.0,6.0,79,0.00,,,0.00,Weather View 32 v70,2013-04-21 08:18:00,
2013-04-20 22:23:00,70.8,63.6,30.09,WNW,283,5.0,6.0,78,0.00,,,0.00,Weather View 32 v70,2013-04-21 08:23:00,
2013-04-20 22:28:00,71.1,63.9,30.09,NNW,343,1.0,6.0,78,0.00,,,0.00,Weather View 32 v70,2013-04-21 08:28:00,
2013-04-20 22:33:00,71.2,64.0,30.09,SE,143,2.0,6.0,78,0.00,,,0.00,Weather View 32 v70,2013-04-21 08:33:00,
2013-04-20 22:38:00,71.1,63.9,30.09,SE,142,2.0,6.0,78,0.00,,,0.00,Weather View 32 v70,2013-04-21 08:38:00,
2013-04-20 22:43:00,71.0,64.1,30.09,East,92,0.0,6.0,79,0.00,,,0.00,Weather View 32 v70,2013-04-21 08:43:00,
2013-04-20 22:48:00,70.8,64.3,30.09,North,6,0.0,6.0,80,0.00,,,0.00,Weather View 32 v70,2013-04-21 08:48:00,
2013-04-20 22:53:00,70.7,64.2,30.09,North,5,0.0,6.0,80,0.00,,,0.00,Weather View 32 v70,2013-04-21 08:53:00,
2013-04-20 22:58:00,70.6,64.1,30.09,West,266,0.0,6.0,80,0.00,,,0.00,Weather View 32 v70,2013-04-21 08:58:00,
2013-04-20 23:03:00,70.5,64.0,30.09,WSW,257,0.0,6.0,80,0.00,,,0.00,Weather View 32 v70,2013-04-21 09:03:00,
2013-04-20 23:08:00,70.4,64.3,30.09,WNW,289,2.0,6.0,81,0.00,,,0.00,Weather View 32 v70,2013-04-21 09:08:00,
2013-04-20 23:13:00,70.2,63.7,30.09,WNW,285,5.0,6.0,80,0.00,,,0.00,Weather View 32 v70,2013-04-21 09:13:00,
2013-04-20 23:18:00,70.1,64.0,30.08,NW,326,5.0,7.0,81,0.00,,,0.00,Weather View 32 v70,2013-04-21 09:18:00,
2013-04-20 23:23:00,70.1,64.0,30.08,WNW,292,6.0,7.0,81,0.00,,,0.00,Weather View 32 v70,2013-04-21 09:23:00,
2013-04-20 23:28:00,70.1,64.0,30.08,NW,309,4.0,7.0,81,0.00,,,0.00,Weather View 32 v70,2013-04-21 09:28:00,
2013-04-20 23:33:00,70.0,63.9,30.08,WNW,294,5.0,7.0,81,0.00,,,0.00,Weather View 32 v70,2013-04-21 09:33:00,
2013-04-20 23:38:00,69.9,63.8,30.08,WNW,294,6.0,7.0,81,0.00,,,0.00,Weather View 32 v70,2013-04-21 09:38:00,
2013-04-20 23:43:00,70.1,64.0,30.08,NW,307,1.0,7.0,81,0.00,,,0.00,Weather View 32 v70,2013-04-21 09:43:00,
2013-04-20 23:48:00,70.1,64.0,30.08,NW,307,3.0,7.0,81,0.00,,,0.00,Weather View 32 v70,2013-04-21 09:48:00,
2013-04-20 23:53:00,70.2,63.7,30.08,WNW,292,3.0,7.0,80,0.00,,,0.00,Weather View 32 v70,2013-04-21 09:53:00,
2013-04-20 23:58:00,70.1,63.6,30.08,WNW,292,0.0,7.0,80,0.00,,,0.00,Weather View 32 v70,2013-04-21 09:58:00,